sensor_id;sensor_type;location;lat;lon;timestamp;pressure;altitude;pressure_sealevel;temperature;humidity
42519;BME280;28147;47.520;18.920;2023-05-01T00:02:02;98694.28;;;16.21;46.78
42519;BME280;28147;47.520;18.920;2023-05-01T00:04:27;98699.69;;;16.37;45.46
42519;BME280;28147;47.520;18.920;2023-05-01T00:06:53;98695.78;;;16.02;47.52
42519;BME280;28147;47.520;18.920;2023-05-01T00:09:18;98697.66;;;16.01;47.32
42519;BME280;28147;47.520;18.920;2023-05-01T00:11:44;98692.88;;;16.09;47.41
42519;BME280;28147;47.520;18.920;2023-05-01T00:14:10;98687.34;;;15.83;48.62
42519;BME280;28147;47.520;18.920;2023-05-01T00:16:36;98695.47;;;15.88;46.95
42519;BME280;28147;47.520;18.920;2023-05-01T00:19:02;98691.19;;;15.50;48.74
42519;BME280;28147;47.520;18.920;2023-05-01T00:21:29;98696.47;;;15.40;48.05
42519;BME280;28147;47.520;18.920;2023-05-01T00:23:55;98678.84;;;15.54;47.41
42519;BME280;28147;47.520;18.920;2023-05-01T00:26:20;98690.06;;;15.46;48.54
42519;BME280;28147;47.520;18.920;2023-05-01T00:28:46;98686.63;;;15.18;49.17
42519;BME280;28147;47.520;18.920;2023-05-01T00:31:11;98692.13;;;15.33;48.98
42519;BME280;28147;47.520;18.920;2023-05-01T00:33:36;98694.00;;;15.33;49.20
42519;BME280;28147;47.520;18.920;2023-05-01T00:36:02;98686.31;;;15.09;50.01
42519;BME280;28147;47.520;18.920;2023-05-01T00:38:27;98689.31;;;15.18;49.20
42519;BME280;28147;47.520;18.920;2023-05-01T00:40:53;98690.38;;;15.17;50.01
42519;BME280;28147;47.520;18.920;2023-05-01T00:43:18;98687.44;;;15.19;49.61
42519;BME280;28147;47.520;18.920;2023-05-01T00:45:44;98693.66;;;15.24;49.30
42519;BME280;28147;47.520;18.920;2023-05-01T00:48:10;98694.69;;;15.18;49.42
42519;BME280;28147;47.520;18.920;2023-05-01T00:50:37;98695.63;;;15.02;49.47
42519;BME280;28147;47.520;18.920;2023-05-01T00:53:02;98699.91;;;15.03;49.42
42519;BME280;28147;47.520;18.920;2023-05-01T00:55:30;98697.06;;;14.82;50.11
42519;BME280;28147;47.520;18.920;2023-05-01T00:57:56;98701.50;;;14.72;50.17
42519;BME280;28147;47.520;18.920;2023-05-01T01:00:21;98693.28;;;14.78;50.26
42519;BME280;28147;47.520;18.920;2023-05-01T01:02:49;98698.97;;;14.87;49.46
42519;BME280;28147;47.520;18.920;2023-05-01T01:05:15;98694.28;;;14.72;50.07
42519;BME280;28147;47.520;18.920;2023-05-01T01:08:14;98689.88;;;14.61;50.31
42519;BME280;28147;47.520;18.920;2023-05-01T01:13:27;98693.81;;;14.53;50.79
42519;BME280;28147;47.520;18.920;2023-05-01T01:16:02;98690.47;;;14.68;49.89
42519;BME280;28147;47.520;18.920;2023-05-01T01:18:32;98695.22;;;14.61;50.98
42519;BME280;28147;47.520;18.920;2023-05-01T01:21:06;98698.28;;;14.48;50.89
42519;BME280;28147;47.520;18.920;2023-05-01T01:24:05;98695.59;;;14.48;51.27
42519;BME280;28147;47.520;18.920;2023-05-01T01:34:46;98683.72;;;15.20;46.90
42519;BME280;28147;47.520;18.920;2023-05-01T01:37:35;98677.09;;;15.32;46.28
42519;BME280;28147;47.520;18.920;2023-05-01T01:40:04;98676.13;;;15.49;45.55
42519;BME280;28147;47.520;18.920;2023-05-01T01:42:42;98683.78;;;15.67;45.11
42519;BME280;28147;47.520;18.920;2023-05-01T01:45:16;98683.88;;;15.82;44.40
42519;BME280;28147;47.520;18.920;2023-05-01T01:47:44;98683.00;;;15.72;44.89
42519;BME280;28147;47.520;18.920;2023-05-01T01:50:11;98677.41;;;15.78;44.93
42519;BME280;28147;47.520;18.920;2023-05-01T01:52:41;98682.84;;;15.46;46.53
42519;BME280;28147;47.520;18.920;2023-05-01T01:55:11;98676.31;;;15.37;46.70
42519;BME280;28147;47.520;18.920;2023-05-01T01:57:37;98675.22;;;15.70;45.09
42519;BME280;28147;47.520;18.920;2023-05-01T02:00:08;98670.94;;;15.74;45.42
42519;BME280;28147;47.520;18.920;2023-05-01T02:02:36;98678.78;;;15.86;44.85
42519;BME280;28147;47.520;18.920;2023-05-01T02:05:06;98673.38;;;15.76;45.12
42519;BME280;28147;47.520;18.920;2023-05-01T02:07:32;98678.47;;;15.77;45.32
42519;BME280;28147;47.520;18.920;2023-05-01T02:09:59;98679.56;;;15.39;46.72
42519;BME280;28147;47.520;18.920;2023-05-01T02:12:26;98676.91;;;15.87;45.25
42519;BME280;28147;47.520;18.920;2023-05-01T02:14:53;98684.13;;;15.81;45.52
42519;BME280;28147;47.520;18.920;2023-05-01T02:17:20;98678.09;;;15.64;46.09
42519;BME280;28147;47.520;18.920;2023-05-01T02:19:47;98673.19;;;15.93;44.74
42519;BME280;28147;47.520;18.920;2023-05-01T02:22:13;98672.09;;;15.84;44.99
42519;BME280;28147;47.520;18.920;2023-05-01T02:24:42;98681.25;;;15.98;44.98
42519;BME280;28147;47.520;18.920;2023-05-01T02:27:32;98680.00;;;16.11;44.23
42519;BME280;28147;47.520;18.920;2023-05-01T02:29:59;98681.59;;;16.07;44.41
42519;BME280;28147;47.520;18.920;2023-05-01T02:32:24;98674.91;;;16.14;44.09
42519;BME280;28147;47.520;18.920;2023-05-01T02:34:50;98678.69;;;16.28;43.74
42519;BME280;28147;47.520;18.920;2023-05-01T02:37:16;98675.53;;;16.37;43.12
42519;BME280;28147;47.520;18.920;2023-05-01T02:39:41;98675.44;;;16.16;43.94
42519;BME280;28147;47.520;18.920;2023-05-01T02:42:08;98678.75;;;16.44;43.78
42519;BME280;28147;47.520;18.920;2023-05-01T02:44:41;98676.00;;;16.23;44.24
42519;BME280;28147;47.520;18.920;2023-05-01T02:47:09;98673.31;;;16.28;43.69
42519;BME280;28147;47.520;18.920;2023-05-01T02:49:38;98683.03;;;16.35;43.65
42519;BME280;28147;47.520;18.920;2023-05-01T02:52:05;98680.91;;;16.42;43.38
42519;BME280;28147;47.520;18.920;2023-05-01T02:54:31;98679.84;;;16.53;43.23
42519;BME280;28147;47.520;18.920;2023-05-01T02:56:57;98685.19;;;16.38;44.24
42519;BME280;28147;47.520;18.920;2023-05-01T02:59:23;98682.50;;;16.43;43.39
42519;BME280;28147;47.520;18.920;2023-05-01T03:01:49;98680.66;;;16.53;42.71
42519;BME280;28147;47.520;18.920;2023-05-01T03:04:15;98676.31;;;16.42;43.79
42519;BME280;28147;47.520;18.920;2023-05-01T03:06:40;98687.03;;;16.32;43.75
42519;BME280;28147;47.520;18.920;2023-05-01T03:09:06;98676.84;;;16.39;42.97
42519;BME280;28147;47.520;18.920;2023-05-01T03:11:32;98681.22;;;16.61;42.63
42519;BME280;28147;47.520;18.920;2023-05-01T03:13:57;98683.59;;;16.47;42.89
42519;BME280;28147;47.520;18.920;2023-05-01T03:16:23;98693.53;;;16.51;43.68
42519;BME280;28147;47.520;18.920;2023-05-01T03:18:48;98699.19;;;16.55;43.73
42519;BME280;28147;47.520;18.920;2023-05-01T03:21:13;98698.06;;;16.30;44.15
42519;BME280;28147;47.520;18.920;2023-05-01T03:23:39;98694.91;;;16.49;43.82
42519;BME280;28147;47.520;18.920;2023-05-01T03:26:05;98702.94;;;16.44;44.28
42519;BME280;28147;47.520;18.920;2023-05-01T03:28:31;98693.81;;;16.55;43.59
42519;BME280;28147;47.520;18.920;2023-05-01T03:30:57;98703.47;;;16.41;43.95
42519;BME280;28147;47.520;18.920;2023-05-01T03:33:22;98698.06;;;16.25;44.88
42519;BME280;28147;47.520;18.920;2023-05-01T03:35:48;98693.00;;;16.44;44.17
42519;BME280;28147;47.520;18.920;2023-05-01T03:38:22;98704.50;;;16.29;44.73
42519;BME280;28147;47.520;18.920;2023-05-01T03:40:48;98695.66;;;16.39;44.91
42519;BME280;28147;47.520;18.920;2023-05-01T03:43:13;98701.88;;;16.45;43.91
42519;BME280;28147;47.520;18.920;2023-05-01T03:45:39;98701.88;;;16.45;44.00
42519;BME280;28147;47.520;18.920;2023-05-01T03:48:04;98699.75;;;16.57;43.75
42519;BME280;28147;47.520;18.920;2023-05-01T03:50:30;98694.84;;;16.39;43.85
42519;BME280;28147;47.520;18.920;2023-05-01T03:52:56;98685.16;;;16.33;43.70
42519;BME280;28147;47.520;18.920;2023-05-01T03:55:21;98695.13;;;16.37;43.40
42519;BME280;28147;47.520;18.920;2023-05-01T03:57:47;98697.06;;;16.57;42.46
42519;BME280;28147;47.520;18.920;2023-05-01T04:00:12;98703.53;;;16.66;42.49
42519;BME280;28147;47.520;18.920;2023-05-01T04:02:38;98707.81;;;16.62;42.73
42519;BME280;28147;47.520;18.920;2023-05-01T04:05:04;98704.44;;;16.14;43.35
42519;BME280;28147;47.520;18.920;2023-05-01T04:07:29;98701.59;;;16.41;42.49
42519;BME280;28147;47.520;18.920;2023-05-01T04:09:54;98707.25;;;16.50;41.63
42519;BME280;28147;47.520;18.920;2023-05-01T04:12:20;98691.41;;;16.53;41.23
42519;BME280;28147;47.520;18.920;2023-05-01T04:14:45;98703.00;;;16.69;41.05
42519;BME280;28147;47.520;18.920;2023-05-01T04:17:11;98711.41;;;16.88;41.13
42519;BME280;28147;47.520;18.920;2023-05-01T04:19:36;98703.88;;;16.75;41.91
42519;BME280;28147;47.520;18.920;2023-05-01T04:22:02;98700.88;;;16.71;41.66
42519;BME280;28147;47.520;18.920;2023-05-01T04:24:27;98709.00;;;17.02;41.08
42519;BME280;28147;47.520;18.920;2023-05-01T04:26:53;98707.69;;;17.20;40.74
42519;BME280;28147;47.520;18.920;2023-05-01T04:29:18;98711.72;;;17.12;40.61
42519;BME280;28147;47.520;18.920;2023-05-01T04:31:44;98709.78;;;17.54;40.13
42519;BME280;28147;47.520;18.920;2023-05-01T04:34:09;98700.38;;;17.46;40.04
42519;BME280;28147;47.520;18.920;2023-05-01T04:36:34;98708.88;;;16.51;41.75
42519;BME280;28147;47.520;18.920;2023-05-01T04:39:00;98711.97;;;17.36;41.04
42519;BME280;28147;47.520;18.920;2023-05-01T04:41:26;98707.69;;;17.35;40.63
42519;BME280;28147;47.520;18.920;2023-05-01T04:43:51;98722.47;;;17.17;41.29
42519;BME280;28147;47.520;18.920;2023-05-01T04:46:16;98723.00;;;17.19;41.58
42519;BME280;28147;47.520;18.920;2023-05-01T04:48:42;98715.47;;;17.42;41.17
42519;BME280;28147;47.520;18.920;2023-05-01T04:51:07;98712.25;;;17.14;41.72
42519;BME280;28147;47.520;18.920;2023-05-01T04:53:33;98706.56;;;17.57;41.88
42519;BME280;28147;47.520;18.920;2023-05-01T04:55:58;98710.81;;;17.98;42.01
42519;BME280;28147;47.520;18.920;2023-05-01T04:58:23;98719.47;;;17.85;42.42
42519;BME280;28147;47.520;18.920;2023-05-01T05:00:49;98711.34;;;17.95;42.49
42519;BME280;28147;47.520;18.920;2023-05-01T05:03:14;98716.34;;;18.38;42.59
42519;BME280;28147;47.520;18.920;2023-05-01T05:05:43;98717.06;;;18.48;41.55
42519;BME280;28147;47.520;18.920;2023-05-01T05:08:08;98722.91;;;18.06;42.04
42519;BME280;28147;47.520;18.920;2023-05-01T05:10:34;98720.84;;;17.62;43.51
42519;BME280;28147;47.520;18.920;2023-05-01T05:13:00;98725.13;;;17.07;44.91
42519;BME280;28147;47.520;18.920;2023-05-01T05:15:25;98729.44;;;17.69;44.45
42519;BME280;28147;47.520;18.920;2023-05-01T05:17:51;98732.50;;;18.38;43.79
42519;BME280;28147;47.520;18.920;2023-05-01T05:20:16;98727.31;;;18.52;42.64
42519;BME280;28147;47.520;18.920;2023-05-01T05:22:41;98720.78;;;18.63;41.97
42519;BME280;28147;47.520;18.920;2023-05-01T05:25:07;98719.72;;;19.08;41.78
42519;BME280;28147;47.520;18.920;2023-05-01T05:27:33;98722.72;;;19.07;40.41
42519;BME280;28147;47.520;18.920;2023-05-01T05:30:05;98729.88;;;19.56;39.98
42519;BME280;28147;47.520;18.920;2023-05-01T05:32:31;98723.72;;;19.79;39.57
42519;BME280;28147;47.520;18.920;2023-05-01T05:34:58;98719.47;;;19.73;38.69
42519;BME280;28147;47.520;18.920;2023-05-01T05:37:23;98727.50;;;19.49;39.51
42519;BME280;28147;47.520;18.920;2023-05-01T05:39:50;98734.69;;;19.64;39.51
42519;BME280;28147;47.520;18.920;2023-05-01T05:42:16;98731.00;;;18.71;40.33
42519;BME280;28147;47.520;18.920;2023-05-01T05:44:41;98744.91;;;19.33;38.33
42519;BME280;28147;47.520;18.920;2023-05-01T05:47:07;98741.56;;;19.12;36.19
42519;BME280;28147;47.520;18.920;2023-05-01T05:49:32;98749.84;;;18.11;36.33
42519;BME280;28147;47.520;18.920;2023-05-01T05:51:58;98744.75;;;18.05;35.87
42519;BME280;28147;47.520;18.920;2023-05-01T05:54:23;98730.78;;;17.67;36.25
42519;BME280;28147;47.520;18.920;2023-05-01T05:56:49;98747.75;;;17.83;36.44
42519;BME280;28147;47.520;18.920;2023-05-01T05:59:14;98732.53;;;18.28;36.84
42519;BME280;28147;47.520;18.920;2023-05-01T06:01:40;98741.16;;;18.35;35.33
42519;BME280;28147;47.520;18.920;2023-05-01T06:04:07;98733.06;;;18.35;35.39
42519;BME280;28147;47.520;18.920;2023-05-01T06:06:32;98752.06;;;17.73;36.23
42519;BME280;28147;47.520;18.920;2023-05-01T06:08:58;98749.88;;;18.01;34.95
42519;BME280;28147;47.520;18.920;2023-05-01T06:11:24;98740.13;;;18.15;34.48
42519;BME280;28147;47.520;18.920;2023-05-01T06:13:50;98743.53;;;18.46;33.26
42519;BME280;28147;47.520;18.920;2023-05-01T06:16:15;98753.03;;;18.34;32.96
42519;BME280;28147;47.520;18.920;2023-05-01T06:18:42;98750.34;;;18.88;33.10
42519;BME280;28147;47.520;18.920;2023-05-01T06:21:07;98750.50;;;19.07;34.25
42519;BME280;28147;47.520;18.920;2023-05-01T06:23:33;98761.78;;;19.14;31.59
42519;BME280;28147;47.520;18.920;2023-05-01T06:25:58;98749.59;;;18.67;32.01
42519;BME280;28147;47.520;18.920;2023-05-01T06:28:24;98755.78;;;18.83;32.29
42519;BME280;28147;47.520;18.920;2023-05-01T06:30:50;98760.69;;;18.66;32.59
42519;BME280;28147;47.520;18.920;2023-05-01T06:33:15;98752.78;;;19.63;32.05
42519;BME280;28147;47.520;18.920;2023-05-01T06:35:40;98767.88;;;18.91;32.13
42519;BME280;28147;47.520;18.920;2023-05-01T06:38:06;98757.50;;;19.77;30.81
42519;BME280;28147;47.520;18.920;2023-05-01T06:40:31;98766.50;;;19.96;30.40
42519;BME280;28147;47.520;18.920;2023-05-01T06:43:00;98769.06;;;20.11;30.68
42519;BME280;28147;47.520;18.920;2023-05-01T06:45:26;98775.19;;;20.46;31.00
42519;BME280;28147;47.520;18.920;2023-05-01T06:47:51;98777.31;;;20.92;31.13
42519;BME280;28147;47.520;18.920;2023-05-01T06:50:16;98777.50;;;20.58;31.42
42519;BME280;28147;47.520;18.920;2023-05-01T06:52:42;98768.44;;;19.66;31.36
42519;BME280;28147;47.520;18.920;2023-05-01T06:55:08;98770.75;;;19.44;32.23
42519;BME280;28147;47.520;18.920;2023-05-01T06:57:34;98770.13;;;19.52;32.19
42519;BME280;28147;47.520;18.920;2023-05-01T06:59:59;98766.88;;;19.55;32.71
42519;BME280;28147;47.520;18.920;2023-05-01T07:02:24;98774.34;;;19.68;32.85
42519;BME280;28147;47.520;18.920;2023-05-01T07:04:51;98776.84;;;19.20;33.87
42519;BME280;28147;47.520;18.920;2023-05-01T07:07:17;98772.53;;;18.80;34.52
42519;BME280;28147;47.520;18.920;2023-05-01T07:09:42;98780.19;;;19.07;34.55
42519;BME280;28147;47.520;18.920;2023-05-01T07:12:07;98780.06;;;19.23;34.53
42519;BME280;28147;47.520;18.920;2023-05-01T07:14:33;98771.13;;;19.32;34.47
42519;BME280;28147;47.520;18.920;2023-05-01T07:16:59;98775.94;;;19.69;33.96
42519;BME280;28147;47.520;18.920;2023-05-01T07:19:25;98783.28;;;19.30;34.56
42519;BME280;28147;47.520;18.920;2023-05-01T07:21:51;98775.06;;;20.08;33.38
42519;BME280;28147;47.520;18.920;2023-05-01T07:24:16;98780.56;;;20.22;32.95
42519;BME280;28147;47.520;18.920;2023-05-01T07:26:42;98787.16;;;19.13;34.39
42519;BME280;28147;47.520;18.920;2023-05-01T07:29:07;98778.72;;;19.20;34.58
42519;BME280;28147;47.520;18.920;2023-05-01T07:31:32;98775.06;;;19.45;34.67
42519;BME280;28147;47.520;18.920;2023-05-01T07:33:58;98774.69;;;19.91;32.99
42519;BME280;28147;47.520;18.920;2023-05-01T07:36:23;98776.91;;;20.13;33.44
42519;BME280;28147;47.520;18.920;2023-05-01T07:38:49;98775.41;;;20.26;31.57
42519;BME280;28147;47.520;18.920;2023-05-01T07:41:14;98765.91;;;20.95;32.70
42519;BME280;28147;47.520;18.920;2023-05-01T07:43:40;98777.69;;;19.55;32.66
42519;BME280;28147;47.520;18.920;2023-05-01T07:46:05;98778.22;;;20.39;32.49
42519;BME280;28147;47.520;18.920;2023-05-01T07:48:31;98779.38;;;20.33;32.48
42519;BME280;28147;47.520;18.920;2023-05-01T07:51:00;98780.41;;;19.50;31.79
42519;BME280;28147;47.520;18.920;2023-05-01T07:53:26;98766.34;;;19.53;32.27
42519;BME280;28147;47.520;18.920;2023-05-01T07:55:51;98779.25;;;20.20;32.97
42519;BME280;28147;47.520;18.920;2023-05-01T07:58:17;98781.38;;;20.23;31.82
42519;BME280;28147;47.520;18.920;2023-05-01T08:00:43;98782.44;;;20.94;31.05
42519;BME280;28147;47.520;18.920;2023-05-01T08:03:09;98789.59;;;21.60;30.17
42519;BME280;28147;47.520;18.920;2023-05-01T08:05:35;98780.16;;;21.20;30.77
42519;BME280;28147;47.520;18.920;2023-05-01T08:08:00;98779.63;;;21.55;30.98
42519;BME280;28147;47.520;18.920;2023-05-01T08:10:26;98790.03;;;21.81;30.36
42519;BME280;28147;47.520;18.920;2023-05-01T08:12:52;98790.50;;;21.69;29.31
42519;BME280;28147;47.520;18.920;2023-05-01T08:15:18;98780.81;;;21.49;29.64
42519;BME280;28147;47.520;18.920;2023-05-01T08:17:45;98792.56;;;21.58;29.25
42519;BME280;28147;47.520;18.920;2023-05-01T08:20:11;98785.69;;;21.33;29.12
42519;BME280;28147;47.520;18.920;2023-05-01T08:22:37;98785.00;;;22.76;28.53
42519;BME280;28147;47.520;18.920;2023-05-01T08:25:03;98788.41;;;22.68;28.18
42519;BME280;28147;47.520;18.920;2023-05-01T08:27:29;98779.72;;;21.97;27.84
42519;BME280;28147;47.520;18.920;2023-05-01T08:29:54;98787.44;;;22.22;27.08
42519;BME280;28147;47.520;18.920;2023-05-01T08:32:20;98796.56;;;21.80;27.75
42519;BME280;28147;47.520;18.920;2023-05-01T08:34:45;98782.59;;;20.59;28.57
42519;BME280;28147;47.520;18.920;2023-05-01T08:37:12;98779.03;;;20.83;28.37
42519;BME280;28147;47.520;18.920;2023-05-01T08:39:37;98782.16;;;21.66;28.27
42519;BME280;28147;47.520;18.920;2023-05-01T08:42:03;98769.59;;;22.85;27.29
42519;BME280;28147;47.520;18.920;2023-05-01T08:44:30;98775.38;;;22.15;26.31
42519;BME280;28147;47.520;18.920;2023-05-01T08:47:18;98777.78;;;22.57;26.05
42519;BME280;28147;47.520;18.920;2023-05-01T08:49:44;98777.41;;;22.50;26.01
42519;BME280;28147;47.520;18.920;2023-05-01T08:52:12;98777.97;;;22.75;25.40
42519;BME280;28147;47.520;18.920;2023-05-01T08:54:41;98777.66;;;22.76;25.96
42519;BME280;28147;47.520;18.920;2023-05-01T08:57:09;98777.84;;;22.94;26.06
42519;BME280;28147;47.520;18.920;2023-05-01T08:59:36;98780.47;;;22.85;25.97
42519;BME280;28147;47.520;18.920;2023-05-01T09:02:03;98780.19;;;22.59;26.01
42519;BME280;28147;47.520;18.920;2023-05-01T09:04:48;98774.78;;;23.09;26.57
42519;BME280;28147;47.520;18.920;2023-05-01T09:07:15;98777.13;;;23.61;26.46
42519;BME280;28147;47.520;18.920;2023-05-01T09:09:40;98766.72;;;24.65;25.07
42519;BME280;28147;47.520;18.920;2023-05-01T09:12:24;98783.53;;;23.87;25.55
42519;BME280;28147;47.520;18.920;2023-05-01T09:14:54;98772.94;;;24.48;25.09
42519;BME280;28147;47.520;18.920;2023-05-01T09:17:21;98762.75;;;24.22;25.40
42519;BME280;28147;47.520;18.920;2023-05-01T09:19:50;98762.53;;;23.57;26.00
42519;BME280;28147;47.520;18.920;2023-05-01T09:22:17;98774.47;;;24.00;25.94
42519;BME280;28147;47.520;18.920;2023-05-01T09:24:43;98770.31;;;23.94;25.00
42519;BME280;28147;47.520;18.920;2023-05-01T09:27:11;98773.53;;;23.74;25.32
42519;BME280;28147;47.520;18.920;2023-05-01T09:29:40;98773.91;;;23.81;25.05
42519;BME280;28147;47.520;18.920;2023-05-01T09:32:21;98763.16;;;24.07;25.85
42519;BME280;28147;47.520;18.920;2023-05-01T09:34:47;98767.09;;;23.25;25.48
42519;BME280;28147;47.520;18.920;2023-05-01T09:37:30;98764.72;;;24.39;25.44
42519;BME280;28147;47.520;18.920;2023-05-01T09:40:14;98768.50;;;23.90;25.54
42519;BME280;28147;47.520;18.920;2023-05-01T09:42:50;98761.38;;;24.02;24.98
42519;BME280;28147;47.520;18.920;2023-05-01T09:45:17;98765.69;;;24.03;25.54
42519;BME280;28147;47.520;18.920;2023-05-01T09:47:46;98772.75;;;22.65;26.90
42519;BME280;28147;47.520;18.920;2023-05-01T09:50:28;98774.69;;;22.50;27.34
42519;BME280;28147;47.520;18.920;2023-05-01T09:52:54;98763.88;;;22.73;26.98
42519;BME280;28147;47.520;18.920;2023-05-01T09:55:20;98763.44;;;23.29;27.01
42519;BME280;28147;47.520;18.920;2023-05-01T09:57:46;98763.28;;;23.71;25.75
42519;BME280;28147;47.520;18.920;2023-05-01T10:00:15;98758.56;;;23.85;25.99
42519;BME280;28147;47.520;18.920;2023-05-01T10:02:45;98752.47;;;23.35;25.58
42519;BME280;28147;47.520;18.920;2023-05-01T10:05:12;98753.16;;;23.94;25.80
42519;BME280;28147;47.520;18.920;2023-05-01T10:07:40;98746.44;;;24.31;26.22
42519;BME280;28147;47.520;18.920;2023-05-01T10:10:20;98752.66;;;24.32;26.21
42519;BME280;28147;47.520;18.920;2023-05-01T10:12:46;98746.38;;;24.14;26.13
42519;BME280;28147;47.520;18.920;2023-05-01T10:15:13;98745.75;;;24.17;25.56
42519;BME280;28147;47.520;18.920;2023-05-01T10:17:40;98731.53;;;23.35;26.44
42519;BME280;28147;47.520;18.920;2023-05-01T10:20:08;98735.09;;;22.99;26.96
42519;BME280;28147;47.520;18.920;2023-05-01T10:22:33;98724.75;;;23.24;27.44
42519;BME280;28147;47.520;18.920;2023-05-01T10:24:59;98718.50;;;23.68;27.18
42519;BME280;28147;47.520;18.920;2023-05-01T10:27:25;98724.91;;;23.50;27.40
42519;BME280;28147;47.520;18.920;2023-05-01T10:29:52;98727.94;;;23.71;27.03
42519;BME280;28147;47.520;18.920;2023-05-01T10:32:18;98726.91;;;24.29;25.96
42519;BME280;28147;47.520;18.920;2023-05-01T10:34:47;98719.41;;;24.35;25.61
42519;BME280;28147;47.520;18.920;2023-05-01T10:37:21;98717.78;;;23.85;26.16
42519;BME280;28147;47.520;18.920;2023-05-01T10:39:48;98720.44;;;23.68;26.11
42519;BME280;28147;47.520;18.920;2023-05-01T10:42:14;98723.84;;;23.82;27.13
42519;BME280;28147;47.520;18.920;2023-05-01T10:44:41;98729.59;;;23.81;26.20
42519;BME280;28147;47.520;18.920;2023-05-01T10:50:12;98710.84;;;25.02;24.85
42519;BME280;28147;47.520;18.920;2023-05-01T10:55:37;98718.97;;;24.01;26.17
42519;BME280;28147;47.520;18.920;2023-05-01T10:58:03;98707.66;;;24.91;25.63
42519;BME280;28147;47.520;18.920;2023-05-01T11:00:29;98705.88;;;24.95;25.57
42519;BME280;28147;47.520;18.920;2023-05-01T11:08:32;98717.38;;;24.40;25.52
42519;BME280;28147;47.520;18.920;2023-05-01T11:13:59;98706.16;;;25.55;25.43
42519;BME280;28147;47.520;18.920;2023-05-01T11:21:48;98705.09;;;24.78;25.31
42519;BME280;28147;47.520;18.920;2023-05-01T11:24:15;98696.03;;;25.72;26.73
42519;BME280;28147;47.520;18.920;2023-05-01T11:26:42;98689.41;;;25.18;24.74
42519;BME280;28147;47.520;18.920;2023-05-01T11:29:10;98689.22;;;24.62;26.58
42519;BME280;28147;47.520;18.920;2023-05-01T11:31:36;98681.69;;;24.68;25.16
42519;BME280;28147;47.520;18.920;2023-05-01T11:34:02;98679.16;;;24.97;25.47
42519;BME280;28147;47.520;18.920;2023-05-01T11:36:29;98675.28;;;24.81;25.49
42519;BME280;28147;47.520;18.920;2023-05-01T11:39:13;98678.31;;;25.32;24.70
42519;BME280;28147;47.520;18.920;2023-05-01T11:41:39;98691.16;;;24.70;24.92
42519;BME280;28147;47.520;18.920;2023-05-01T11:44:05;98676.72;;;24.87;25.39
42519;BME280;28147;47.520;18.920;2023-05-01T11:46:31;98677.06;;;25.85;25.46
42519;BME280;28147;47.520;18.920;2023-05-01T11:49:01;98662.78;;;25.88;23.98
42519;BME280;28147;47.520;18.920;2023-05-01T11:51:27;98661.50;;;24.95;25.40
42519;BME280;28147;47.520;18.920;2023-05-01T11:54:08;98673.38;;;24.82;25.14
42519;BME280;28147;47.520;18.920;2023-05-01T11:56:35;98674.66;;;25.10;25.12
42519;BME280;28147;47.520;18.920;2023-05-01T11:59:12;98667.59;;;24.92;25.72
42519;BME280;28147;47.520;18.920;2023-05-01T12:01:45;98663.25;;;24.73;24.81
42519;BME280;28147;47.520;18.920;2023-05-01T12:04:11;98661.84;;;24.67;25.35
42519;BME280;28147;47.520;18.920;2023-05-01T12:06:42;98659.81;;;24.16;26.31
42519;BME280;28147;47.520;18.920;2023-05-01T12:09:10;98653.56;;;24.07;26.17
42519;BME280;28147;47.520;18.920;2023-05-01T12:11:40;98652.59;;;24.02;26.84
42519;BME280;28147;47.520;18.920;2023-05-01T12:14:06;98653.00;;;23.56;27.85
42519;BME280;28147;47.520;18.920;2023-05-01T12:16:32;98653.41;;;23.41;27.51
42519;BME280;28147;47.520;18.920;2023-05-01T12:18:58;98650.31;;;23.96;26.79
42519;BME280;28147;47.520;18.920;2023-05-01T12:21:24;98657.97;;;23.23;27.26
42519;BME280;28147;47.520;18.920;2023-05-01T12:23:51;98646.78;;;23.87;26.83
42519;BME280;28147;47.520;18.920;2023-05-01T12:26:18;98651.41;;;23.86;26.84
42519;BME280;28147;47.520;18.920;2023-05-01T12:29:19;98652.72;;;23.97;26.56
42519;BME280;28147;47.520;18.920;2023-05-01T12:31:46;98652.41;;;23.05;27.52
42519;BME280;28147;47.520;18.920;2023-05-01T12:34:11;98646.28;;;24.42;26.26
42519;BME280;28147;47.520;18.920;2023-05-01T12:36:37;98632.25;;;24.00;26.41
42519;BME280;28147;47.520;18.920;2023-05-01T12:39:05;98633.44;;;23.68;26.57
42519;BME280;28147;47.520;18.920;2023-05-01T12:41:46;98627.09;;;24.64;25.48
42519;BME280;28147;47.520;18.920;2023-05-01T12:46:40;98619.47;;;24.09;25.15
42519;BME280;28147;47.520;18.920;2023-05-01T12:49:06;98607.81;;;24.17;25.50
42519;BME280;28147;47.520;18.920;2023-05-01T12:51:32;98620.66;;;23.77;27.00
42519;BME280;28147;47.520;18.920;2023-05-01T12:53:57;98621.25;;;24.14;25.57
42519;BME280;28147;47.520;18.920;2023-05-01T12:56:24;98616.97;;;22.88;26.83
42519;BME280;28147;47.520;18.920;2023-05-01T12:58:51;98606.31;;;23.54;26.67
42519;BME280;28147;47.520;18.920;2023-05-01T13:01:27;98617.16;;;23.76;26.30
42519;BME280;28147;47.520;18.920;2023-05-01T13:03:53;98600.50;;;23.78;25.99
42519;BME280;28147;47.520;18.920;2023-05-01T13:06:21;98600.28;;;24.14;26.13
42519;BME280;28147;47.520;18.920;2023-05-01T13:08:47;98600.16;;;23.71;26.13
42519;BME280;28147;47.520;18.920;2023-05-01T13:11:14;98598.63;;;23.47;26.92
42519;BME280;28147;47.520;18.920;2023-05-01T13:13:42;98600.44;;;23.61;25.90
42519;BME280;28147;47.520;18.920;2023-05-01T13:16:12;98583.28;;;23.91;25.80
42519;BME280;28147;47.520;18.920;2023-05-01T13:18:46;98585.91;;;24.14;26.03
42519;BME280;28147;47.520;18.920;2023-05-01T13:21:14;98591.63;;;24.03;25.40
42519;BME280;28147;47.520;18.920;2023-05-01T13:23:41;98578.13;;;23.81;25.76
42519;BME280;28147;47.520;18.920;2023-05-01T13:26:08;98578.97;;;23.50;25.93